Terminal Aerodrome Forecast
Issued by NWS Cleveland, OH

Home | Current Version | Previous Version | Graphics & Text | Print | Product List | Glossary On
Versions: 1 2 3 4 5 6 7 8 9 10 11 12
274
FTUS41 KCLE 242335
TAFTOL
TAF
KTOL 242335Z 2500/2524 06012KT P6SM SCT250
     FM250600 09006KT P6SM OVC050
     FM250900 09004KT P6SM OVC035
     FM251200 09004KT P6SM OVC020
     FM251600 12008KT P6SM BKN050=

USA.gov is the U.S. government's official web portal to all federal, state and local government web resources and services.